KFLO/FLO METAR and TAF weather

Enter ICAO airport designator
Station Type Date Time Source
KFLO METAR 2021/04/13 07:53 UTC NOAA

KFLO 130753Z AUTO 34004KT 10SM CLR 13/07 A2995 RMK AO2 SLP139 T01330072


Station Type Date Time Source
KFLO Decoded METAR 2021/04/13 07:53 UTC NOAA

FLORENCE REGIONAL AIRPORT, SC, United States (KFLO) 34-11N 079-44W 44M
Apr 13, 2021 - 03:53 AM EDT / 2021.04.13 0753 UTC
Wind: from the NNW (340 degrees) at 5 MPH (4 KT):0
Visibility: 10 mile(s):0
Sky conditions: clear
Temperature: 55.9 F (13.3 C)
Dew Point: 45.0 F (7.2 C)
Relative Humidity: 66%
Pressure (altimeter): 29.95 in. Hg (1014 hPa)
ob: KFLO 130753Z AUTO 34004KT 10SM CLR 13/07 A2995 RMK AO2 SLP139 T01330072
cycle: 8

Station Type Date Time Source
KFLO TAF 2021/04/13 06:33 UTC NOAA

TAF KFLO 130531Z 1306/1406 35009KT P6SM SCT250
FM131400 01011KT P6SM SCT250
FM140000 09005KT P6SM BKN250
FM140200 15003KT P6SM OVC250

Example: see airport list